• Join FlightAware (Why Join?)
  • Login
  • US Flag 
04:02PM EDT


 

Airport Tracker/Info


-or-


 

Live Flight TrackerFlight Track Log ✈ EJA583 ✈ 18-Sep-2013 ✈ KORL - KBTR

Flight Track Log - Related Links

Times and Time Zones

All times are in EDT time to prevent confusion due to time zone crossing. See the EJA583 flight status page for this flight to view local times or setup timezone preferences in your user account.

Time Position Orientation Groundspeed Altitude Reporting Facility
EDT Latitude Longitude Course Direction KTS MPH feet Rate Location/Type
08:16AM 28.5500 -81.3167 41° Northeast 182 209 800  Level Orlando TRACON
08:17AM 28.5833 -81.2833 41° Northeast 191 220 1,800 660 Climbing Orlando TRACON
08:18AM 28.6167 -81.3167 319° Northwest 233 268 2,000 1,260 Climbing Orlando TRACON
08:19AM 28.6167 -81.4000 270° West 228 262 4,400 2,760 Climbing Orlando TRACON
08:20AM 28.6000 -81.4667 254° West 252 290 7,300 3,000 Climbing Orlando TRACON
08:21AM 28.5833 -81.5500 257° West 257 296 10,500 2,220 Climbing Orlando TRACON
08:23AM 28.5206 -81.7561 251° West 299 344 15,200 1,980 Climbing Jacksonville Center
08:24AM 28.4942 -81.8556 253° West 320 368 17,300 1,980 Climbing Jacksonville Center
08:25AM 28.4700 -81.9528 254° West 320 368 19,200 1,500 Climbing Jacksonville Center
08:26AM 28.4539 -82.0567 260° West 325 374 20,400 1,200 Climbing Jacksonville Center
08:27AM 28.4714 -82.1722 280° West 343 395 21,600 1,200 Climbing Jacksonville Center
08:28AM 28.4867 -82.2881 279° West 363 418 22,900 1,200 Climbing Jacksonville Center
08:29AM 28.5017 -82.4083 278° West 373 429 24,100 1,200 Climbing Jacksonville Center
08:30AM 28.5333 -82.5192 288° West 378 435 25,300 1,200 Climbing Jacksonville Center
08:31AM 28.6128 -82.5922 321° Northwest 351 404 26,500 1,200 Climbing Jacksonville Center
08:32AM 28.6944 -82.6583 325° Northwest 361 415 27,800 1,200 Climbing Jacksonville Center
08:33AM 28.7717 -82.7314 320° Northwest 355 409 28,900 1,080 Climbing Jacksonville Center
08:34AM 28.8531 -82.8047 322° Northwest 361 415 30,000 1,080 Climbing Jacksonville Center
08:35AM 28.9347 -82.8761 323° Northwest 366 421 31,100 1,140 Climbing Jacksonville Center
08:36AM 29.0139 -82.9494 321° Northwest 366 421 32,300 1,140 Climbing Jacksonville Center
08:37AM 29.0931 -83.0208 322° Northwest 366 421 33,400 1,020 Climbing Jacksonville Center
08:38AM 29.1744 -83.0947 322° Northwest 371 427 34,400 900 Climbing Jacksonville Center
08:39AM 29.2536 -83.1686 321° Northwest 371 427 35,200 720 Climbing Jacksonville Center
08:40AM 29.3369 -83.2428 322° Northwest 371 427 35,900 360 Climbing Jacksonville Center
08:41AM 29.4222 -83.3217 321° Northwest 376 433 36,000  Climbing Jacksonville Center
08:42AM 29.5181 -83.4106 321° Northwest 389 448 36,000  Level Jacksonville Center
08:43AM 29.6075 -83.4922 322° Northwest 404 465 36,000 180 Level Jacksonville Center
08:44AM 29.6928 -83.5739 320° Northwest 404 465 36,400 900 Climbing Jacksonville Center
08:45AM 29.7736 -83.6464 322° Northwest 392 451 37,900 780 Climbing Jacksonville Center
08:46AM 29.8547 -83.7189 322° Northwest 380 437 38,000  Climbing Jacksonville Center
08:47AM 29.9144 -83.8153 306° West 370 426 38,000  Level Jacksonville Center
08:48AM 29.9533 -83.9331 291° West 369 425 38,000  Level Jacksonville Center
08:49AM 29.9900 -84.0461 291° West 380 437 38,000  Level Jacksonville Center
08:50AM 30.0283 -84.1617 291° West 385 443 38,000  Level Jacksonville Center
08:51AM 30.0669 -84.2750 292° West 385 443 38,000  Level Jacksonville Center
08:52AM 30.1011 -84.3931 289° West 385 443 38,000  Level Jacksonville Center
08:53AM 30.1414 -84.5092 292° West 390 449 38,000  Level Jacksonville Center
08:54AM 30.1797 -84.6250 291° West 390 449 38,000  Level Jacksonville Center
08:55AM 30.2175 -84.7411 291° West 390 449 38,000  Level Jacksonville Center
08:56AM 30.2556 -84.8597 290° West 390 449 38,000  Level Jacksonville Center
08:57AM 30.2914 -84.9758 290° West 390 449 38,000  Level Jacksonville Center
08:58AM 30.3289 -85.0897 291° West 390 449 38,000  Level Jacksonville Center
08:59AM 30.3667 -85.2061 291° West 390 449 38,000  Level Jacksonville Center
09:00AM 30.4042 -85.3228 290° West 390 449 38,000  Level Jacksonville Center
09:01AM 30.4414 -85.4442 290° West 390 449 38,000  Level Jacksonville Center
09:02AM 30.4808 -85.5583 292° West 390 449 38,000  Level Jacksonville Center
09:03AM 30.5158 -85.6775 289° West 390 449 38,000  Level Jacksonville Center
09:04AM 30.5528 -85.7944 290° West 390 449 38,000  Level Jacksonville Center
09:05AM 30.5772 -85.9158 283° West 390 449 38,000  Level Jacksonville Center
09:06AM 30.5783 -86.0436 271° West 390 449 38,000  Level Jacksonville Center
09:07AM 30.5814 -86.1692 272° West 390 449 38,000  Level Jacksonville Center
09:08AM 30.5822 -86.2947 270° West 390 449 38,000  Level Jacksonville Center
09:09AM 30.5808 -86.4225 269° West 390 449 38,000  Level Jacksonville Center
09:10AM 30.5836 -86.5458 272° West 390 449 38,000  Level Jacksonville Center
09:11AM 30.5842 -86.6711 270° West 390 449 38,000  Level Jacksonville Center
09:12AM 30.5844 -86.7992 270° West 390 449 38,000  Level Jacksonville Center
09:13AM 30.5831 -86.9125 269° West 390 449 38,000  Level Jacksonville Center
09:14AM 30.5850 -87.0475 271° West 390 449 38,000  Level Jacksonville Center
09:15AM 30.5850 -87.1753 270° West 390 449 38,000  Level Jacksonville Center
09:17AM 30.5853 -87.3783 270° West 395 455 38,000  Level Houston Center
09:18AM 30.5858 -87.5064 270° West 396 456 38,000  Level Houston Center
09:19AM 30.5844 -87.6353 269° West 397 457 38,000  Level Houston Center
09:20AM 30.5844 -87.7628 270° West 396 456 38,000  Level Houston Center
09:21AM 30.5842 -87.8911 270° West 395 455 38,000  Level Houston Center
09:22AM 30.5833 -88.0183 270° West 394 453 38,000  Level Houston Center
09:23AM 30.5822 -88.1461 269° West 394 453 38,000 -900 Level Houston Center
09:24AM 30.5817 -88.2983 270° West 392 451 36,200 -1,620 Descending Houston Center
09:25AM 30.5806 -88.4211 269° West 382 440 34,700 -1,500 Descending Houston Center
09:26AM 30.5781 -88.5444 269° West 382 440 33,200 -1,500 Descending Houston Center
09:27AM 30.5781 -88.6744 270° West 399 459 31,700 -1,500 Descending Houston Center
09:28AM 30.5767 -88.8072 269° West 410 472 30,200 -1,500 Descending Houston Center
09:29AM 30.5756 -88.9403 269° West 411 473 28,700 -1,440 Descending Houston Center
09:30AM 30.5750 -89.0706 270° West 418 481 27,300 -1,620 Descending Houston Center
09:31AM 30.5725 -89.2372 269° West 432 497 25,500 -1,620 Descending Houston Center
09:32AM 30.5711 -89.3767 269° West 435 501 24,000 -1,260 Descending Houston Center
09:33AM 30.5700 -89.5117 269° West 427 491 22,900 -1,020 Descending Houston Center
09:34AM 30.5678 -89.6408 269° West 412 474 22,000 -900 Descending Houston Center
09:36AM 30.5650 -89.7694 269° West 406 467 21,100 -1,260 Descending Houston Center
09:37AM 30.5625 -89.9194 269° West 396 456 19,500 -1,680 Descending Houston Center
09:38AM 30.5594 -90.0431 268° West 390 449 17,700 -1,860 Descending Houston Center
09:39AM 30.5569 -90.1647 269° West 383 441 15,700 -1,980 Descending Houston Center
09:40AM 30.5542 -90.2850 268° West 377 434 13,700 -1,920 Descending Houston Center
09:41AM 30.5522 -90.4050 269° West 376 433 11,800 -1,320 Descending Houston Center
09:42AM 30.5483 -90.5442 268° West 364 419 11,000 -420 Descending Houston Center
09:43AM 30.5447 -90.6583 268° West 358 412 11,000  Level Houston Center
09:43AM 30.5444 -90.6969 270° West 363 418 11,000 -720 Level Houston Center
09:44AM 30.5417 -90.7731 268° West 357 411 10,300 -1,560 Descending Houston Center
09:45AM 30.5236 -90.8658 257° West 312 359 8,300 -2,340 Descending Houston Center
09:46AM 30.4850 -90.9469 241° Southwest 293 337 5,500 -2,280 Descending Houston Center
09:47AM 30.4489 -91.0247 242° Southwest 284 327 3,700 -1,260 Descending Houston Center
09:48AM 30.4486 -91.1217 270° West 266 306 3,000 -540 Descending Houston Center
09:49AM 30.4514 -91.1864 273° West 252 290 2,700 -300 Descending Houston Center
09:51AM 30.5167 -91.1333 33° Northeast  Level FlightAware Approximate
09:58AM 30.5329 -91.1499 33° Northeast  Level Estimated